Tiempo atmosférico en la estación meteorológica de Villayón, Oneta, Asturias (410 m.)



Fecha
DESCASC
Temp. máxima en grados centígrados (hora)
DESCASC
Temp. mínima en grados centígrados (hora)
DESCASC
Temp. media en grados centígrados
DESCASC
Racha de viento máxima en m/sg (hora)
DESCASC
Velocidad máxima media en intervalos de 10 minutos(hora)
DESCASC
Precipitaciones diarias en mm
DESCASC
Precipitaciones de 00:00 a 06:00 en mm
DESCASC
Precipitaciones de 06:00 a 12:00 en mm
DESCASC
Precipitaciones de 12:00 a 18:00 en mm
DESCASC
Precipitaciones de 18:00 a 24:00 en mm
DESCASC
16-04-2019 16.6 (18:30) 7.3 (07:40) 12 9.17 (17:40) 6.67 (17:20) 0 0 0 0 0
15-04-2019 18 (12:30) 8.9 (22:50) 13.4 11.67 (17:30) 6.67 (18:10) 6 0 5 0.8 0.2
14-04-2019 22.2 (16:10) 13.8 (00:00) 18 7.5 (10:50) 3.89 (12:30) 0 0 0 0 0
13-04-2019 19.6 (16:30) 9.5 (00:00) 14.6 6.39 (15:30) 3.89 (15:40) 0 0 0 0 0
12-04-2019 15.8 (18:30) 3.6 (00:00) 9.7 5.28 (14:50) 3.33 (14:50) 0 0 0 0 0
11-04-2019 12 (11:50) 5.2 (00:00) 8.6 6.67 (17:00) 4.44 (15:50) 0.4 0 0 0.4 0
10-04-2019 10.4 (16:20) 6.3 (00:00) 8.3 14.17 (11:30) 8.89 (10:20) 15.2 5.8 7.2 1 1.2
09-04-2019 13.2 (17:10) 7.1 (00:00) 10.1 16.39 (13:40) 6.11 (02:30) 1.2 0 0 0.8 0.4
08-04-2019 14.6 (16:00) 8 (00:00) 11.3 15 (17:20) 6.39 (11:10) 2 1.6 0 0.4 0
07-04-2019 13.6 (15:50) 4.9 (00:00) 9.3 15.28 (19:50) 8.89 (19:40) 6.2 0 0 0 6.2
06-04-2019 9.2 (14:30) 5.2 (00:00) 7.2 13.89 (06:30) 6.67 (06:30) 5.4 0 0 4 1.4
05-04-2019 11.1 (14:50) 3.7 (00:00) 7.4 15.56 (10:40) 7.5 (13:20) 1 0.2 0 0.4 0.4
04-04-2019 9.9 (13:30) 2.4 (00:00) 6.1 17.78 (16:20) 8.61 (16:50) 0.8 0.8 0 0 0
03-04-2019 7.7 (16:10) 2.4 (00:00) 5 19.17 (19:10) 9.17 (16:20) 15 2.6 4.2 3.4 4.8
02-04-2019 10.7 (13:10) 6.1 (00:00) 8.4 8.61 (15:40) 6.11 (15:40) 3.8 0 0 0 3.8
01-04-2019 -- (--) -- (--) -- -- (--) -- (--) -- -- -- -- 0
31-03-2019 -- (--) -- (--) -- -- (--) -- (--) -- -- -- -- --
30-03-2019 -- (--) -- (--) -- -- (--) -- (--) -- 0 0 -- --
29-03-2019 14.1 (16:10) 5.6 (00:00) 9.9 7.22 (01:40) 3.89 (01:00) 0 0 0 0 0
28-03-2019 14.5 (12:10) 6.3 (00:00) 10.4 11.39 (10:40) 7.78 (04:00) 0 0 0 0 0
27-03-2019 14.8 (13:00) 6.7 (00:00) 10.8 19.72 (01:50) 12.22 (01:50) 0 0 0 0 0
26-03-2019 13.3 (14:20) 7 (00:00) 10.2 19.17 (21:30) 14.17 (21:30) 0 0 0 0 0
25-03-2019 12.7 (12:20) 7.3 (00:00) 10 14.17 (23:40) 9.72 (15:20) 0 0 0 0 0
24-03-2019 16.1 (14:40) 7 (00:00) 11.6 11.39 (18:30) 5.83 (18:30) 0 0 0 0 0
23-03-2019 18 (15:50) 7.6 (00:00) 12.8 7.5 (17:40) 3.61 (17:50) 0 0 0 0 0
22-03-2019 17.4 (12:10) 6.4 (00:00) 11.9 6.94 (16:20) 4.72 (16:20) 0 0 0 0 0
21-03-2019 13.1 (13:20) 4.9 (00:00) 9 12.5 (12:10) 7.78 (10:00) 0 0 0 0 0
20-03-2019 12.7 (14:00) 6.6 (00:00) 9.6 11.94 (18:20) 6.67 (12:30) 0 0 0 0 0
19-03-2019 10.1 (12:00) 5.7 (00:00) 7.9 7.78 (21:50) 5 (21:50) 0.6 0.4 0.2 0 0

Gráficas

Temp. máximas Temp. mínimas Temp. medias Precipitaciones Rachas de viento máximas Velocidades máximas media en intervalos de 10 minutos

Datos horarios

Fecha y hora oficial Temperatura (ºC) Velocidad del viento (km/h) Dirección del viento Racha (km/h) Dirección de racha Precipitación (mm) Presión (hPa) Tendencia (hPa) Humedad (%)
2019-04-17 23:00:00 11 7 Sudeste 18 Este 0.4 -- -- 79
2019-04-17 22:00:00 11.4 0 Calma 9 Este 0.4 -- -- 78
2019-04-17 21:00:00 11.7 4 Sur 12 Noroeste 0 -- -- 77
2019-04-17 20:00:00 12.6 5 Este 18 Este 0 -- -- 67
2019-04-17 19:00:00 13 10 Este 20 Sudeste 0 -- -- 68
2019-04-17 18:00:00 13.3 14 Nordeste 24 Noroeste 0 -- -- 69
2019-04-17 17:00:00 14.3 15 Noroeste 27 Noroeste 0 -- -- 68
2019-04-17 16:00:00 15.8 9 Noroeste 17 Noroeste 0 -- -- 73
2019-04-17 15:00:00 16.4 7 Noroeste 17 Este 0 -- -- 72
2019-04-17 14:00:00 19.8 5 Noroeste 17 Sudeste 0 -- -- 54
2019-04-17 13:00:00 19.7 3 Noroeste 8 Sudoeste 0 -- -- 54
2019-04-17 12:00:00 18.5 5 Sur 10 Sudeste 0 -- -- 54
2019-04-17 11:00:00 17.8 6 Sur 12 Sudoeste 0 -- -- 59
2019-04-17 10:00:00 17.5 3 Sur 10 Sudeste 0 -- -- 52
2019-04-17 09:00:00 14.6 6 Sur 10 Sur 0 -- -- 54
2019-04-17 08:00:00 13.2 7 Sudoeste 14 Sudoeste 0 -- -- 61
2019-04-17 07:00:00 14.3 3 Sudoeste 11 Sur 0 -- -- 54
2019-04-17 06:00:00 14.7 5 Sur 12 Sudoeste 0 -- -- 52
2019-04-17 05:00:00 14.6 6 Sur 20 Este 0 -- -- 52
2019-04-17 04:00:00 13.5 11 Sudeste 18 Sudeste 0 -- -- 56
2019-04-17 03:00:00 14.2 2 Sudoeste 10 Sudoeste 0 -- -- 55
2019-04-17 02:00:00 13.7 4 Este 9 Nordeste 0 -- -- 60
2019-04-17 01:00:00 13.4 5 Sudeste 10 Este 0 -- -- 65
2019-04-17 00:00:00 13.6 2 Nordeste 21 Sudeste 0 -- -- 69
2019-04-16 23:00:00 13.2 6 Sur 19 Sudeste 0 -- -- 76
2019-04-16 22:00:00 12.6 3 Nordeste 11 Noroeste 0 -- -- 79
2019-04-16 21:00:00 13.7 5 Este 17 Este 0 -- -- 72
2019-04-16 20:00:00 14.2 15 Nordeste 29 Este 0 -- -- 74
2019-04-16 19:00:00 15.8 13 Nordeste 26 Nordeste 0 -- -- 73
2019-04-16 18:00:00 15.3 17 Este 33 Este 0 -- -- 51
2019-04-16 17:00:00 15.3 18 Este 30 Este 0 -- -- 69
2019-04-16 16:00:00 15.4 19 Este 30 Este 0 -- -- 68
2019-04-16 15:00:00 16.1 9 Este 21 Este 0 -- -- 68
2019-04-16 14:00:00 15.8 8 Este 17 Sudeste 0 -- -- 67
2019-04-16 13:00:00 14.9 6 Oeste 13 Noroeste 0 -- -- 73
2019-04-16 12:00:00 13.4 3 Noroeste 9 Noroeste 0 -- -- 73
2019-04-16 11:00:00 12.5 3 Oeste 9 Sudoeste 0 -- -- 75
2019-04-16 10:00:00 11 5 Sur 15 Sur 0 -- -- 80
2019-04-16 09:00:00 8.8 10 Sur 13 Sur 0 -- -- 84
2019-04-16 08:00:00 8.1 5 Sudeste 14 Sudoeste 0 -- -- 78
2019-04-16 07:00:00 7.8 0 Calma 14 Sur 0 -- -- 84
2019-04-16 06:00:00 7.7 4 Sudeste 12 Sudoeste 0 -- -- 87
2019-04-16 05:00:00 7.9 3 Noroeste 18 Oeste 0 -- -- 87
2019-04-16 04:00:00 8.9 8 Sur 15 Sur 0 -- -- 81
2019-04-16 03:00:00 8.5 3 Sur 12 Sudoeste 0 -- -- 90
2019-04-16 02:00:00 8.9 0 Calma 7 Sur 0 -- -- 90
2019-04-16 01:00:00 9.1 5 Este 8 Este 0 -- -- 88
2019-04-16 00:00:00 9.2 7 Este 9 Este 0 -- -- 90
2019-04-15 23:00:00 9 4 Nordeste 9 Nordeste 0 -- -- 94
2019-04-15 22:00:00 9.1 3 Sudeste 18 Noroeste 0 -- -- 96
2019-04-15 21:00:00 9.6 13 Noroeste 22 Noroeste 0 -- -- 96
2019-04-15 20:00:00 10.4 11 Noroeste 24 Noroeste 0 -- -- 96
2019-04-15 19:00:00 10.3 13 Noroeste 32 Noroeste 0.2 -- -- 100
2019-04-15 18:00:00 11.1 18 Noroeste 42 Noroeste 0.8 -- -- 96
2019-04-15 17:00:00 14.9 9 Noroeste 28 Sur 0 -- -- 72
2019-04-15 16:00:00 12.9 9 Oeste 38 Sudoeste 0 -- -- 79
2019-04-15 15:00:00 12.9 13 Oeste 37 Sudoeste 0 -- -- 76
2019-04-15 14:00:00 13 9 Oeste 42 Noroeste 0 -- -- 82
2019-04-15 13:00:00 17.4 10 Noroeste 30 Sudoeste 0 -- -- 66
2019-04-15 12:00:00 16.4 9 Sudoeste 25 Sudoeste 0 -- -- 82
2019-04-15 11:00:00 14.4 9 Sudoeste 26 Sudoeste 2.6 -- -- 93
2019-04-15 10:00:00 13.7 12 Sur 21 Sudoeste 2.4 -- -- 94
2019-04-15 09:00:00 16 3 Sudeste 14 Sudoeste 0 -- -- 75
2019-04-15 08:00:00 16.2 4 Noroeste 8 Sudoeste 0 -- -- 74
2019-04-15 07:00:00 15.5 4 Sudeste 9 Sudoeste 0 -- -- 81
2019-04-15 06:00:00 15.6 2 Sudoeste 11 Sudoeste 0 -- -- 79
2019-04-15 05:00:00 16.1 3 Sudeste 5 Sudeste 0 -- -- 78
2019-04-15 04:00:00 16.2 3 Sudeste 8 Este 0 -- -- 78
2019-04-15 03:00:00 16.2 7 Este 8 Este 0 -- -- 79
2019-04-15 02:00:00 16.5 3 Sur 9 Este 0 -- -- 78
2019-04-15 01:00:00 17.5 4 Este 8 Sudeste 0 -- -- 72
2019-04-15 00:00:00 17 2 Sur 6 Sudeste 0 -- -- 79
2019-04-14 23:00:00 17.3 3 Sudeste 10 Sudeste 0 -- -- 78
2019-04-14 22:00:00 16.6 4 Este 9 Este 0 -- -- 81
2019-04-14 21:00:00 16.6 4 Oeste 18 Este 0 -- -- 81
2019-04-14 20:00:00 17.9 13 Este 19 Este 0 -- -- 75
2019-04-14 19:00:00 18.9 8 Este 23 Este 0 -- -- 72
2019-04-14 18:00:00 20.6 3 Oeste 15 Noroeste 0 -- -- 72
2019-04-14 17:00:00 21.2 11 Noroeste 18 Noroeste 0 -- -- 67
2019-04-14 16:00:00 21.9 5 Sur 15 Noroeste 0 -- -- 65
2019-04-14 15:00:00 19.9 4 Noroeste 13 Noroeste 0 -- -- 72
2019-04-14 14:00:00 18.4 13 Noroeste 18 Noroeste 0 -- -- 74
2019-04-14 13:00:00 19.4 6 Oeste 24 Sur 0 -- -- 67
2019-04-14 12:00:00 18.1 10 Noroeste 27 Sudoeste 0 -- -- 71
2019-04-14 11:00:00 17.7 8 Oeste 27 Oeste 0 -- -- 72
2019-04-14 10:00:00 16.8 7 Oeste 25 Sur 0 -- -- 77
2019-04-14 09:00:00 15.2 8 Sudoeste 23 Sur 0 -- -- 83
2019-04-14 08:00:00 14.8 6 Oeste 19 Oeste 0 -- -- 83
2019-04-14 07:00:00 14.7 9 Sur 19 Sudoeste 0 -- -- 83
2019-04-14 06:00:00 14.8 4 Oeste 21 Sur 0 -- -- 82
2019-04-14 05:00:00 14.6 8 Oeste 24 Sudoeste 0 -- -- 82
2019-04-14 04:00:00 14.7 7 Sudoeste 24 Sudoeste 0 -- -- 81
2019-04-14 03:00:00 14.5 7 Oeste 21 Sudoeste 0 -- -- 82
2019-04-14 02:00:00 14.3 8 Oeste 22 Sudoeste 0 -- -- 80
2019-04-14 01:00:00 14.4 2 Norte 18 Sudoeste 0 -- -- 74
2019-04-14 00:00:00 14.4 5 Sudeste 10 Oeste 0 -- -- 69
2019-04-13 23:00:00 13.7 5 Este 9 Nordeste 0 -- -- 68
2019-04-13 22:00:00 13.3 4 Este 9 Este 0 -- -- 75
2019-04-13 21:00:00 13.5 3 Sudoeste 10 Oeste 0 -- -- 74
2019-04-13 20:00:00 14.8 3 Oeste 10 Noroeste 0 -- -- 71
2019-04-13 19:00:00 15.7 6 Oeste 15 Noroeste 0 -- -- 64
2019-04-13 18:00:00 17.7 9 Oeste 17 Noroeste 0 -- -- 61
2019-04-13 17:00:00 18.5 11 Noroeste 20 Noroeste 0 -- -- 58
2019-04-13 16:00:00 19.4 9 Noroeste 23 Noroeste 0 -- -- 59
2019-04-13 15:00:00 18.1 12 Noroeste 20 Noroeste 0 -- -- 61
2019-04-13 14:00:00 17.2 11 Noroeste 17 Noroeste 0 -- -- 65
2019-04-13 13:00:00 18.9 5 Noroeste 11 Sudoeste 0 -- -- 57
2019-04-13 12:00:00 16.4 3 Noroeste 7 Oeste 0 -- -- 64
2019-04-13 11:00:00 14.8 2 Sudeste 12 Este 0 -- -- 71
2019-04-13 10:00:00 12.2 5 Sudeste 8 Sur 0 -- -- 77
2019-04-13 09:00:00 11.4 2 Nordeste 6 Sudoeste 0 -- -- 80
2019-04-13 08:00:00 9.6 2 Sudoeste 14 Sudoeste 0 -- -- 83
2019-04-13 07:00:00 10.3 3 Sudeste 9 Este 0 -- -- 78
2019-04-13 06:00:00 10.3 4 Sur 8 Sudoeste 0 -- -- 78
2019-04-13 05:00:00 10.4 0 Calma 5 Sur 0 -- -- 76
2019-04-13 04:00:00 10.7 2 Sudoeste 8 Este 0 -- -- 75
2019-04-13 03:00:00 10.5 3 Sudeste 10 Sur 0 -- -- 78
2019-04-13 02:00:00 10.6 4 Sudoeste 10 Sudoeste 0 -- -- 79
2019-04-13 01:00:00 11 4 Este 7 Este 0 -- -- 70
2019-04-13 00:00:00 10.9 0 Calma 5 Sudeste 0 -- -- 79
2019-04-12 23:00:00 10.5 3 Sudeste 5 Sudeste 0 -- -- 78
2019-04-12 22:00:00 10.3 3 Sudeste 4 Sudeste 0 -- -- 88
2019-04-12 21:00:00 11.2 2 Sudeste 6 Oeste 0 -- -- 90
2019-04-12 20:00:00 13.1 6 Noroeste 10 Oeste 0 -- -- 83
2019-04-12 19:00:00 15.7 3 Oeste 13 Oeste 0 -- -- 72
2019-04-12 18:00:00 15.7 7 Noroeste 17 Noroeste 0 -- -- 69
2019-04-12 17:00:00 15.5 8 Noroeste 18 Oeste 0 -- -- 68
2019-04-12 16:00:00 15.2 8 Noroeste 19 Noroeste 0 -- -- 70
2019-04-12 15:00:00 13.9 9 Noroeste 19 Noroeste 0 -- -- 82
2019-04-12 14:00:00 13.6 7 Noroeste 13 Noroeste 0 -- -- 80
2019-04-12 13:00:00 12 5 Noroeste 12 Noroeste 0 -- -- 78
2019-04-12 12:00:00 10.4 5 Sur 11 Sudoeste 0 -- -- 84
2019-04-12 11:00:00 7 4 Sudeste 10 Sudeste 0 -- -- 100
2019-04-12 10:00:00 5.1 4 Sur 7 Sur 0 -- -- 100
2019-04-12 09:00:00 3.9 3 Oeste 10 Sudoeste 0 -- -- 100
2019-04-12 08:00:00 3.7 0 Calma 12 Sudoeste 0 -- -- 100
2019-04-12 07:00:00 4.3 0 Calma 4 Este 0 -- -- 100
2019-04-12 06:00:00 5.2 0 Calma 6 Este 0 -- -- 100
2019-04-12 05:00:00 5.8 3 Noroeste 5 Este 0 -- -- 99
2019-04-12 04:00:00 5.8 3 Sur 4 Sudoeste 0 -- -- 97
2019-04-12 03:00:00 6.2 2 Sudoeste 4 Sur 0 -- -- 96
2019-04-12 02:00:00 6.7 0 Calma 5 Este 0 -- -- 95
2019-04-12 01:00:00 6.7 2 Sur 5 Sudeste 0 -- -- 96
2019-04-12 00:00:00 7.3 2 Nordeste 16 Nordeste 0 -- -- 92
2019-04-11 23:00:00 7.4 8 Este 21 Este 0 -- -- 93
2019-04-11 22:00:00 7.9 13 Este 21 Este 0 -- -- 93
2019-04-11 21:00:00 8.1 13 Este 19 Este 0 -- -- 92
2019-04-11 20:00:00 9.4 9 Este 15 Este 0 -- -- 87
2019-04-11 19:00:00 10.5 4 Nordeste 16 Noroeste 0 -- -- 83
2019-04-11 18:00:00 10.9 5 Noroeste 24 Noroeste 0 -- -- 81
2019-04-11 17:00:00 10.3 14 Noroeste 24 Noroeste 0 -- -- 86
2019-04-11 16:00:00 10.3 14 Noroeste 22 Noroeste 0 -- -- 86
2019-04-11 15:00:00 10.2 15 Noroeste 21 Noroeste 0 -- -- 88
2019-04-11 14:00:00 10 3 Noroeste 8 Noroeste 0.4 -- -- 89
2019-04-11 13:00:00 8.7 3 Noroeste 13 Noroeste 0 -- -- 91
2019-04-11 12:00:00 10.6 6 Noroeste 12 Oeste 0 -- -- 81
2019-04-11 11:00:00 9.4 3 Sur 8 Sudeste 0 -- -- 88
2019-04-11 10:00:00 7.1 4 Sur 8 Sudoeste 0 -- -- 96
2019-04-11 09:00:00 5.4 6 Sur 9 Sudoeste 0 -- -- 97
2019-04-11 08:00:00 5.4 2 Sudeste 8 Sudoeste 0 -- -- 97
2019-04-11 07:00:00 5.7 0 Calma 4 Sudeste 0 -- -- 97
2019-04-11 06:00:00 5.9 0 Calma 6 Sur 0 -- -- 96
2019-04-11 05:00:00 6 3 Este 6 Sudeste 0 -- -- 97
2019-04-11 04:00:00 6.5 2 Nordeste 9 Este 0 -- -- 95
2019-04-11 03:00:00 6.7 0 Calma 5 Sudeste 0 -- -- 97
2019-04-11 02:00:00 7.3 3 Sudeste 4 Sudoeste 0 -- -- 99
2019-04-11 01:00:00 7.5 0 Calma 4 Oeste 0 -- -- 98
2019-04-11 00:00:00 7.8 3 Sudoeste 7 Oeste 0 -- -- 97
2019-04-10 23:00:00 7.7 0 Calma 4 Sur 0 -- -- 97
2019-04-10 22:00:00 7.4 5 Este 8 Este 0.8 -- -- 98
2019-04-10 21:00:00 8 8 Oeste 22 Noroeste 0.4 -- -- 96
2019-04-10 20:00:00 9.3 12 Noroeste 24 Noroeste 0 -- -- 88
2019-04-10 19:00:00 9.6 9 Noroeste 24 Noroeste 0 -- -- 89
2019-04-10 18:00:00 10.1 13 Noroeste 24 Noroeste 0 -- -- 81
2019-04-10 17:00:00 9.8 16 Norte 25 Norte 0 -- -- 88
2019-04-10 16:00:00 10.2 14 Noroeste 33 Noroeste 0 -- -- 86
2019-04-10 15:00:00 9.4 10 Noroeste 30 Noroeste 0.6 -- -- 94
2019-04-10 14:00:00 8.4 18 Norte 35 Noroeste 0.4 -- -- 96
2019-04-10 13:00:00 8.8 16 Noroeste 45 Noroeste 0 -- -- 96
2019-04-10 12:00:00 8.7 28 Noroeste 51 Noroeste 2.6 -- -- 97
2019-04-10 11:00:00 8.4 24 Noroeste 45 Noroeste 0.4 -- -- 100
2019-04-10 10:00:00 8 23 Noroeste 44 Oeste 0.4 -- -- 100
2019-04-10 09:00:00 7.6 18 Noroeste 37 Noroeste 2.2 -- -- 100
2019-04-10 08:00:00 7.5 19 Noroeste 32 Noroeste 0 -- -- 99
2019-04-10 07:00:00 7.1 12 Noroeste 25 Oeste 1.6 -- -- 100
2019-04-10 06:00:00 6.6 5 Oeste 23 Sur 1 -- -- 99
2019-04-10 05:00:00 6.4 5 Noroeste 23 Sudoeste 1.2 -- -- 97
2019-04-10 04:00:00 6.7 9 Noroeste 32 Sudoeste 0.6 -- -- 93
2019-04-10 03:00:00 7 11 Oeste 33 Sudoeste 3 -- -- 92
2019-04-10 02:00:00 8.2 11 Sudoeste 31 Sudoeste 0 -- -- 80
2019-04-10 01:00:00 8.1 9 Oeste 25 Sur 0 -- -- 81
2019-04-10 00:00:00 7.7 5 Noroeste 18 Noroeste 0 -- -- 82
2019-04-09 23:00:00 8 8 Noroeste 24 Sur 0 -- -- 85
2019-04-09 22:00:00 8 7 Noroeste 26 Sudoeste 0 -- -- 85
2019-04-09 21:00:00 8.3 13 Sudoeste 31 Sur 0.2 -- -- 85
2019-04-09 20:00:00 9.2 13 Oeste 32 Sur 0.2 -- -- 81
2019-04-09 19:00:00 9.6 12 Sudoeste 28 Sur 0 -- -- 83
2019-04-09 18:00:00 9.9 12 Oeste 39 Sudoeste 0.8 -- -- 83
2019-04-09 17:00:00 12.8 11 Sudoeste 46 Sur 0 -- -- 63
2019-04-09 16:00:00 12.9 16 Sudoeste 45 Sur 0 -- -- 61
2019-04-09 15:00:00 12.9 14 Sudoeste 40 Sudoeste 0 -- -- 67
2019-04-09 14:00:00 12.7 10 Oeste 59 Oeste 0 -- -- 62
2019-04-09 13:00:00 11.1 14 Sudoeste 38 Sudoeste 0 -- -- 69
2019-04-09 12:00:00 9.1 13 Oeste 37 Sudoeste 0 -- -- 76
2019-04-09 11:00:00 8.3 6 Sudoeste 31 Oeste 0 -- -- 78
2019-04-09 10:00:00 7.5 9 Oeste 37 Sur 0 -- -- 81
2019-04-09 09:00:00 7.2 7 Noroeste 35 Sur 0 -- -- 84
2019-04-09 08:00:00 7.6 12 Sudoeste 33 Sudoeste 0 -- -- 79
2019-04-09 07:00:00 8 12 Oeste 40 Sudoeste 0 -- -- 76
2019-04-09 06:00:00 8.2 21 Sudoeste 41 Sudoeste 0 -- -- 75
2019-04-09 05:00:00 8.6 12 Sudoeste 30 Sudoeste 0 -- -- 74
2019-04-09 04:00:00 8.8 10 Sudoeste 35 Sudoeste 0 -- -- 72
2019-04-09 03:00:00 8.7 11 Sudoeste 47 Sudoeste 0 -- -- 73
2019-04-09 02:00:00 8.2 14 Sudoeste 40 Sudoeste 0 -- -- 76
2019-04-09 01:00:00 8.7 10 Sur 32 Sur 0 -- -- 76
2019-04-09 00:00:00 9.7 22 Sur 34 Sur 0 -- -- 66
2019-04-08 23:00:00 9.2 10 Sudoeste 34 Sur 0 -- -- 69
2019-04-08 22:00:00 9.1 16 Sur 35 Sudoeste 0 -- -- 72
2019-04-08 21:00:00 10.8 7 Oeste 19 Oeste 0 -- -- 65
2019-04-08 20:00:00 11.2 9 Sur 23 Sudoeste 0 -- -- 70
2019-04-08 19:00:00 11.8 17 Sur 35 Sur 0 -- -- 70
2019-04-08 18:00:00 9.9 20 Sur 54 Sudoeste 0.2 -- -- 78
2019-04-08 17:00:00 12.6 15 Sur 41 Sur 0.2 -- -- 64
2019-04-08 16:00:00 14.6 16 Sur 42 Sur 0 -- -- 55
2019-04-08 15:00:00 13 15 Sur 41 Sur 0 -- -- 60
2019-04-08 14:00:00 12.2 9 Sudoeste 28 Sudoeste 0 -- -- 58
2019-04-08 13:00:00 12.1 11 Oeste 40 Sudoeste 0 -- -- 62
2019-04-08 12:00:00 11.8 12 Sudoeste 49 Sudoeste 0 -- -- 70
2019-04-08 11:00:00 11.2 21 Sur 39 Sur 0 -- -- 73
2019-04-08 10:00:00 9.7 12 Sudoeste 32 Sur 0 -- -- 73
2019-04-08 09:00:00 8.7 16 Sudoeste 32 Sudoeste 0 -- -- 78
2019-04-08 08:00:00 8 9 Sudoeste 26 Sudoeste 0 -- -- 82
2019-04-08 07:00:00 8.5 7 Sudoeste 22 Sudoeste 0 -- -- 85
2019-04-08 06:00:00 8.9 5 Sudoeste 17 Oeste 0 -- -- 89
2019-04-08 05:00:00 8.7 5 Sudoeste 12 Sudoeste 0 -- -- 95
2019-04-08 04:00:00 8.5 4 Noroeste 13 Noroeste 0.4 -- -- 99
2019-04-08 03:00:00 8.8 4 Noroeste 23 Sudoeste 0.8 -- -- 96
2019-04-08 02:00:00 8.8 6 Sudoeste 22 Sudoeste 0 -- -- 92
2019-04-08 01:00:00 8.5 4 Sudeste 24 Sur 0.4 -- -- 96
2019-04-08 00:00:00 9.5 15 Sudoeste 43 Sudoeste 1 -- -- 88
2019-04-07 23:00:00 9 9 Oeste 30 Sur 0.6 -- -- 90
2019-04-07 22:00:00 8.4 7 Sudoeste 31 Sur 0 -- -- 91
2019-04-07 21:00:00 8 12 Sudoeste 36 Sur 0.2 -- -- 92
2019-04-07 20:00:00 8.4 28 Sur 55 Sur 1.4 -- -- 85
2019-04-07 19:00:00 7.5 7 Sudeste 21 Sudoeste 3 -- -- 93
2019-04-07 18:00:00 9.6 14 Sudoeste 30 Sur 0 -- -- 75
2019-04-07 17:00:00 12.4 9 Oeste 31 Sur 0 -- -- 56
2019-04-07 16:00:00 13.3 9 Oeste 30 Sudoeste 0 -- -- 53
2019-04-07 15:00:00 13.1 12 Sudoeste 30 Sur 0 -- -- 57
2019-04-07 14:00:00 12.1 14 Sur 28 Sudoeste 0 -- -- 58
2019-04-07 13:00:00 11.6 12 Sur 26 Sur 0 -- -- 66
2019-04-07 12:00:00 10.4 10 Sudoeste 33 Sudoeste 0 -- -- 68
2019-04-07 11:00:00 9.1 9 Oeste 29 Sudoeste 0 -- -- 70
2019-04-07 10:00:00 7.9 7 Sudoeste 27 Sudoeste 0 -- -- 78
2019-04-07 09:00:00 6 13 Sudoeste 31 Sudoeste 0 -- -- 83
2019-04-07 08:00:00 5 9 Oeste 33 Sur 0 -- -- 84
2019-04-07 07:00:00 4.9 14 Sudoeste 37 Sudoeste 0 -- -- 82
2019-04-07 06:00:00 5.1 9 Sudoeste 30 Sudoeste 0 -- -- 82
2019-04-07 05:00:00 5.4 14 Sudoeste 35 Sudoeste 0 -- -- 84
2019-04-07 04:00:00 5.4 13 Sudoeste 31 Sudoeste 0 -- -- 83
2019-04-07 03:00:00 5.4 13 Sudoeste 30 Sur 0 -- -- 87
2019-04-07 02:00:00 5.3 8 Oeste 26 Sudoeste 0 -- -- 90
2019-04-07 01:00:00 5.1 4 Oeste 16 Sur 0 -- -- 91
2019-04-07 00:00:00 5.2 4 Noroeste 17 Noroeste 0.4 -- -- 92
2019-04-06 23:00:00 5.7 9 Sudoeste 23 Sudoeste 0 -- -- 87
2019-04-06 22:00:00 5.8 5 Oeste 25 Sudoeste 0 -- -- 86
2019-04-06 21:00:00 5.9 10 Oeste 23 Oeste 0 -- -- 89
2019-04-06 20:00:00 5.4 8 Oeste 24 Sudoeste 0.8 -- -- 95
2019-04-06 19:00:00 5.9 8 Oeste 20 Noroeste 0.2 -- -- 95
2019-04-06 18:00:00 5.9 4 Norte 21 Oeste 1.2 -- -- 96
2019-04-06 17:00:00 6.7 4 Oeste 20 Sudoeste 0.6 -- -- 93
2019-04-06 16:00:00 5.8 5 Noroeste 27 Sudoeste 2 -- -- 94
2019-04-06 15:00:00 8.5 6 Oeste 25 Sudoeste 0 -- -- 80
2019-04-06 14:00:00 6.9 5 Oeste 28 Oeste 0.2 -- -- 86
2019-04-06 13:00:00 8.9 13 Sudoeste 32 Sudoeste 0 -- -- 74
2019-04-06 12:00:00 8.5 6 Oeste 33 Sur 0 -- -- 78
2019-04-06 11:00:00 7 10 Oeste 27 Sudoeste 0 -- -- 77
2019-04-06 10:00:00 6.5 15 Sur 40 Sur 0 -- -- 74
2019-04-06 09:00:00 6.1 13 Sudoeste 43 Sur 0 -- -- 73
2019-04-06 08:00:00 5.8 15 Sur 33 Sur 0 -- -- 74
2019-04-06 07:00:00 5.8 16 Sudoeste 50 Sur 0 -- -- 73
2019-04-06 06:00:00 5.5 6 Oeste 38 Sudoeste 0 -- -- 80
2019-04-06 05:00:00 5.7 14 Sudoeste 37 Sudoeste 0 -- -- 78
2019-04-06 04:00:00 5.8 14 Sudoeste 41 Sur 0 -- -- 79
2019-04-06 03:00:00 5.8 15 Sudoeste 37 Sudoeste 0 -- -- 81
2019-04-06 02:00:00 6.4 14 Sudoeste 33 Oeste 0 -- -- 77
2019-04-06 01:00:00 5.8 19 Sur 40 Sur 0 -- -- 82
2019-04-06 00:00:00 5.6 8 Sudoeste 27 Sudoeste 0 -- -- 83
2019-04-05 23:00:00 5.8 5 Sudoeste 29 Sudoeste 0 -- -- 81
2019-04-05 22:00:00 5.9 9 Sudoeste 23 Sudoeste 0 -- -- 82
2019-04-05 21:00:00 6.1 11 Sudoeste 28 Sudoeste 0 -- -- 85
2019-04-05 20:00:00 7 6 Sudoeste 16 Sudoeste 0 -- -- 83
2019-04-05 19:00:00 6.9 4 Sudoeste 16 Noroeste 0.4 -- -- 93
2019-04-05 18:00:00 6.6 10 Oeste 52 Sur 0.4 -- -- 85
2019-04-05 17:00:00 9.5 14 Sudoeste 46 Sur 0 -- -- 71
2019-04-05 16:00:00 9 14 Noroeste 33 Sur 0 -- -- 66
2019-04-05 15:00:00 10.9 13 Oeste 42 Sur 0 -- -- 52
2019-04-05 14:00:00 9.8 24 Sudoeste 56 Sur 0 -- -- 55
2019-04-05 13:00:00 8.8 21 Sur 54 Sudoeste 0 -- -- 59
2019-04-05 12:00:00 8.4 19 Sudoeste 47 Oeste 0 -- -- 64
2019-04-05 11:00:00 7.8 19 Sudoeste 56 Sur 0 -- -- 67
2019-04-05 10:00:00 6.3 16 Sudoeste 49 Sur 0 -- -- 74
2019-04-05 09:00:00 3.9 7 Noroeste 30 Sur 0 -- -- 83
2019-04-05 08:00:00 3.8 6 Noroeste 45 Sudoeste 0 -- -- 83
2019-04-05 07:00:00 3.9 14 Sudoeste 42 Sur 0 -- -- 85
2019-04-05 06:00:00 4.5 6 Noroeste 35 Sur 0 -- -- 85
2019-04-05 05:00:00 4.7 10 Oeste 29 Sudoeste 0 -- -- 85
2019-04-05 04:00:00 4.8 11 Sudoeste 23 Sur 0.2 -- -- 89
2019-04-05 03:00:00 5.2 9 Oeste 25 Sur 0 -- -- 87
2019-04-05 02:00:00 5.1 7 Noroeste 18 Noroeste 0 -- -- 91
2019-04-05 01:00:00 5.8 4 Oeste 16 Sudoeste 0 -- -- 87
2019-04-05 00:00:00 6.4 8 Sudoeste 26 Sudoeste 0 -- -- 83
2019-04-04 23:00:00 6.7 15 Sudoeste 39 Sur 0 -- -- 81
2019-04-04 22:00:00 7 13 Sudoeste 34 Sudoeste 0 -- -- 79
2019-04-04 21:00:00 7.3 20 Sudoeste 50 Sudoeste 0 -- -- 78
2019-04-04 20:00:00 8 25 Sudoeste 52 Sur 0 -- -- 73
2019-04-04 19:00:00 8.4 13 Sudoeste 55 Sur 0 -- -- 72
2019-04-04 18:00:00 8.5 18 Sudoeste 61 Sur 0 -- -- 71
2019-04-04 17:00:00 8.6 23 Sudoeste 64 Sudoeste 0 -- -- 69
2019-04-04 16:00:00 8.7 22 Sudoeste 55 Sudoeste 0 -- -- 69
2019-04-04 15:00:00 8.6 23 Sudoeste 55 Sudoeste 0 -- -- 68
2019-04-04 14:00:00 9 20 Sudoeste 52 Sudoeste 0 -- -- 70
2019-04-04 13:00:00 9.8 18 Sudoeste 48 Sudoeste 0 -- -- 70
2019-04-04 12:00:00 7.9 17 Sudoeste 48 Sudoeste 0 -- -- 71
2019-04-04 11:00:00 5.8 6 Noroeste 27 Oeste 0 -- -- 82
2019-04-04 10:00:00 4.9 12 Sudoeste 36 Sudoeste 0 -- -- 84
2019-04-04 09:00:00 4 11 Sudoeste 29 Sudoeste 0 -- -- 87
2019-04-04 08:00:00 3.4 5 Oeste 20 Sudoeste 0 -- -- 89
2019-04-04 07:00:00 3.3 3 Noroeste 18 Sur 0 -- -- 91
2019-04-04 06:00:00 2.9 3 Nordeste 13 Sudoeste 0 -- -- 92
2019-04-04 05:00:00 3.3 4 Noroeste 20 Sur 0 -- -- 93
2019-04-04 04:00:00 3.1 4 Noroeste 17 Sudoeste 0 -- -- 95
2019-04-04 03:00:00 3.1 6 Noroeste 22 Sudoeste 0.2 -- -- 95
2019-04-04 02:00:00 3.4 6 Sudoeste 31 Oeste 0 -- -- 92
2019-04-04 01:00:00 3.4 6 Oeste 17 Sudoeste 0.6 -- -- 94
2019-04-04 00:00:00 2.4 5 Sudoeste 22 Oeste 3 -- -- 97
2019-04-03 23:00:00 3.6 5 Noroeste 17 Oeste 0.2 -- -- 95
2019-04-03 22:00:00 3.4 8 Sur 19 Oeste 0.2 -- -- 97
2019-04-03 21:00:00 3.4 7 Sur 17 Sudoeste 0 -- -- 97
2019-04-03 20:00:00 3 4 Sur 69 Noroeste 1.4 -- -- 100
2019-04-03 19:00:00 6 9 Noroeste 48 Noroeste 0 -- -- 78
2019-04-03 18:00:00 6.9 29 Noroeste 49 Noroeste 0 -- -- 78
2019-04-03 17:00:00 6.8 26 Noroeste 53 Noroeste 1 -- -- 78
2019-04-03 16:00:00 6.8 21 Noroeste 59 Oeste 0.2 -- -- 84
2019-04-03 15:00:00 5.1 24 Noroeste 46 Noroeste 0.4 -- -- 94
2019-04-03 14:00:00 5.6 7 Oeste 27 Oeste 0.6 -- -- 94
2019-04-03 13:00:00 4 10 Noroeste 57 Noroeste 1.2 -- -- 97
2019-04-03 12:00:00 4.5 6 Oeste 14 Sudoeste 0.2 -- -- 97
2019-04-03 11:00:00 3.6 4 Oeste 31 Noroeste 1 -- -- 100
2019-04-03 10:00:00 3.7 4 Sur 31 Oeste 1.2 -- -- 99
2019-04-03 09:00:00 3.9 5 Sudoeste 21 Noroeste 0.8 -- -- 99
2019-04-03 08:00:00 4 7 Sudoeste 21 Sudoeste 0.4 -- -- 98
2019-04-03 07:00:00 4.3 5 Oeste 26 Sudoeste 0.6 -- -- 97
2019-04-03 06:00:00 4.7 6 Oeste 17 Sudoeste 0.6 -- -- 96
2019-04-03 05:00:00 4.5 5 Sudoeste 34 Noroeste 0.6 -- -- 98
2019-04-03 04:00:00 4.6 4 Oeste 30 Oeste 0.8 -- -- 97
2019-04-03 03:00:00 5.3 3 Oeste 17 Sudoeste 0.2 -- -- 94
2019-04-03 02:00:00 5.6 3 Sudoeste 17 Noroeste 0 -- -- 96
2019-04-03 01:00:00 5.9 5 Oeste 21 Noroeste 0.4 -- -- 96
2019-04-03 00:00:00 6.1 10 Noroeste 19 Oeste 0.6 -- -- 97
2019-04-02 23:00:00 6.4 4 Sudoeste 16 Oeste 0.2 -- -- 97
2019-04-02 22:00:00 6.6 15 Noroeste 25 Noroeste 0.6 -- -- 100
2019-04-02 21:00:00 6.9 5 Oeste 13 Oeste 1.2 -- -- 100
2019-04-02 20:00:00 7 5 Noroeste 23 Noroeste 1.2 -- -- 100
2019-04-02 19:00:00 7.6 7 Noroeste 19 Oeste 0 -- -- 96
2019-04-02 18:00:00 7.4 9 Noroeste 27 Noroeste 0 -- -- 98
2019-04-02 17:00:00 8.1 12 Noroeste 23 Noroeste 0 -- -- 95
2019-04-02 16:00:00 9.1 15 Noroeste 31 Noroeste 0 -- -- 92
2019-04-02 15:00:00 9.8 10 Noroeste 22 Noroeste 0 -- -- 86
2019-04-02 14:00:00 9.3 17 Noroeste 26 Noroeste 0 -- -- 92
2019-04-02 13:00:00 10.4 4 Oeste 8 Sudoeste 0 -- -- 88
2019-04-02 12:00:00 9.3 0 Calma 9 Sudeste 0 -- -- 96
2019-04-02 11:00:00 8.5 6 Sudeste 10 Sudeste 0 -- -- 98
2019-04-02 10:00:00 8.2 3 Oeste 8 Noroeste 0 -- -- 99
2019-04-02 09:00:00 8.2 4 Oeste 10 Oeste 0 -- -- 99
2019-04-02 08:00:00 7.9 3 Oeste 18 Noroeste 0 -- -- 100
2019-04-02 07:00:00 7.9 5 Noroeste 8 Noroeste 0 -- -- 99
2019-04-02 06:00:00 8.2 3 Oeste 4 Noroeste 0 -- -- 99
2019-04-02 05:00:00 8.5 0 Calma 5 Noroeste 0 -- -- 97
2019-04-02 04:00:00 8.6 0 Calma 13 Noroeste 0 -- -- 98
2019-04-02 03:00:00 8.6 9 Noroeste 13 Noroeste 0 -- -- 100
2019-04-02 02:00:00 8 3 Oeste 9 Este 0 -- -- 97
2019-04-02 01:00:00 8.4 5 Noroeste 14 Noroeste 0 -- -- 100
2019-04-02 00:00:00 8.7 8 Noroeste 10 Noroeste 0 -- -- 100
2019-04-01 23:00:00 8.9 3 Sudeste 9 Sudeste 0 -- -- 99
2019-04-01 22:00:00 9.2 3 Sur 10 Noroeste 0 -- -- 100
2019-04-01 21:00:00 10.3 2 Oeste 9 Noroeste 0 -- -- 98
2019-04-01 20:00:00 11.6 8 Noroeste 18 Noroeste 0 -- -- 93
2019-04-01 19:00:00 12.6 16 Noroeste 21 Noroeste 0 -- -- 89
2019-04-01 18:00:00 13.8 16 Noroeste 26 Noroeste 0 -- -- 85
2019-04-01 17:00:00 14.5 12 Oeste 24 Noroeste 0 -- -- 77
2019-04-01 16:00:00 15.1 13 Noroeste 24 Noroeste 0 -- -- 77
2019-04-01 15:00:00 14.6 17 Noroeste 28 Noroeste 0 -- -- 74
2019-04-01 14:00:00 14.4 15 Noroeste -- -- -- -- -- 79
2019-04-01 13:00:00 -- -- -- -- -- -- -- -- --
2019-04-01 12:00:00 -- -- -- -- -- -- -- -- --
2019-04-01 11:00:00 -- -- -- -- -- -- -- -- --
2019-04-01 10:00:00 -- -- -- -- -- -- -- -- --
2019-04-01 09:00:00 -- -- -- -- -- -- -- -- --
2019-04-01 08:00:00 -- -- -- -- -- -- -- -- --
2019-04-01 07:00:00 -- -- -- -- -- -- -- -- --
2019-04-01 06:00:00 -- -- -- -- -- -- -- -- --
2019-04-01 05:00:00 -- -- -- -- -- -- -- -- --
2019-04-01 04:00:00 -- -- -- -- -- -- -- -- --
2019-04-01 03:00:00 -- -- -- -- -- -- -- -- --
2019-04-01 02:00:00 -- -- -- -- -- -- -- -- --
2019-04-01 01:00:00 -- -- -- -- -- -- -- -- --
2019-04-01 00:00:00 -- -- -- -- -- -- -- -- --
2019-03-31 23:00:00 -- -- -- -- -- -- -- -- --
2019-03-31 22:00:00 -- -- -- -- -- -- -- -- --
2019-03-31 21:00:00 -- -- -- -- -- -- -- -- --
2019-03-31 20:00:00 -- -- -- -- -- -- -- -- --
2019-03-31 19:00:00 -- -- -- -- -- -- -- -- --
2019-03-31 18:00:00 -- -- -- -- -- -- -- -- --
2019-03-31 17:00:00 -- -- -- -- -- -- -- -- --
2019-03-31 16:00:00 -- -- -- -- -- -- -- -- --
2019-03-31 15:00:00 -- -- -- -- -- -- -- -- --
2019-03-31 14:00:00 -- -- -- -- -- -- -- -- --
2019-03-31 13:00:00 -- -- -- -- -- -- -- -- --
2019-03-31 12:00:00 -- -- -- -- -- -- -- -- --
2019-03-31 11:00:00 -- -- -- -- -- -- -- -- --
2019-03-31 10:00:00 -- -- -- -- -- -- -- -- --
2019-03-31 09:00:00 -- -- -- -- -- -- -- -- --
2019-03-31 08:00:00 -- -- -- -- -- -- -- -- --
2019-03-31 07:00:00 -- -- -- -- -- -- -- -- --
2019-03-31 06:00:00 -- -- -- -- -- -- -- -- --
2019-03-31 05:00:00 -- -- -- -- -- -- -- -- --
2019-03-31 03:00:00 -- -- -- -- -- -- -- -- --
2019-03-31 01:00:00 -- -- -- -- -- -- -- -- --
2019-03-31 00:00:00 -- -- -- -- -- -- -- -- --
2019-03-30 23:00:00 -- -- -- -- -- -- -- -- --
2019-03-30 22:00:00 -- -- -- -- -- -- -- -- --
2019-03-30 21:00:00 -- -- -- -- -- -- -- -- --
2019-03-30 20:00:00 -- -- -- -- -- -- -- -- --
2019-03-30 19:00:00 -- -- -- -- -- -- -- -- --
2019-03-30 18:00:00 -- -- -- -- -- -- -- -- --
2019-03-30 17:00:00 12.7 3 Noroeste 14 Noroeste 0 -- -- 83
2019-03-30 16:00:00 14.2 4 Noroeste 14 Noroeste 0 -- -- 78
2019-03-30 15:00:00 15.3 6 Noroeste 16 Noroeste 0 -- -- 63
2019-03-30 14:00:00 15.3 14 Noroeste 23 Noroeste 0 -- -- 60
2019-03-30 13:00:00 15.9 11 Noroeste 17 Oeste 0 -- -- 57
2019-03-30 12:00:00 14.9 9 Noroeste 14 Oeste 0 -- -- 73
2019-03-30 11:00:00 15.7 2 Noroeste 9 Sur 0 -- -- 61
2019-03-30 10:00:00 14.2 4 Sur 11 Sudoeste 0 -- -- 66
2019-03-30 09:00:00 12.4 3 Sudeste 7 Sur 0 -- -- 75
2019-03-30 08:00:00 9.4 3 Sudoeste 14 Sudoeste 0 -- -- 75
2019-03-30 07:00:00 9.4 4 Sur 13 Sudoeste 0 -- -- 75
2019-03-30 06:00:00 9.9 5 Sur 10 Sur 0 -- -- 73
2019-03-30 05:00:00 10.1 5 Sur 11 Sudoeste 0 -- -- 74
2019-03-30 04:00:00 9.8 2 Sudeste 14 Sudeste 0 -- -- 78
2019-03-30 03:00:00 9.6 0 Calma 7 Sudoeste 0 -- -- 86
2019-03-30 02:00:00 9.5 2 Sur 9 Sudoeste 0 -- -- 90
2019-03-30 01:00:00 8.4 4 Sudeste 5 Sudeste 0 -- -- 100
2019-03-30 00:00:00 7.3 2 Sur 5 Este 0 -- -- 100
2019-03-29 23:00:00 7.9 0 Calma 5 Este 0 -- -- 100
2019-03-29 22:00:00 8.6 0 Calma 4 Oeste 0 -- -- 100
2019-03-29 21:00:00 9.2 0 Calma 4 Este 0 -- -- 100
2019-03-29 20:00:00 9.5 2 Oeste 9 Noroeste 0 -- -- 99
2019-03-29 19:00:00 10.8 7 Noroeste 12 Noroeste 0 -- -- 93
2019-03-29 18:00:00 12.4 8 Noroeste 14 Noroeste 0 -- -- 86
2019-03-29 17:00:00 13.4 8 Noroeste 15 Noroeste 0 -- -- 82
2019-03-29 16:00:00 14 8 Noroeste 18 Noroeste 0 -- -- 82
2019-03-29 15:00:00 13.5 9 Noroeste 18 Noroeste 0 -- -- 81
2019-03-29 14:00:00 13.3 9 Noroeste 18 Noroeste 0 -- -- 79
2019-03-29 13:00:00 13 8 Noroeste 15 Noroeste 0 -- -- 77
2019-03-29 12:00:00 11.3 7 Noroeste 12 Noroeste 0 -- -- 80
2019-03-29 11:00:00 10.8 3 Noroeste 7 Noroeste 0 -- -- 76
2019-03-29 10:00:00 9 2 Noroeste 5 Sur 0 -- -- 81
2019-03-29 09:00:00 9.1 0 Calma 6 Este 0 -- -- 80
2019-03-29 08:00:00 5.9 3 Este 4 Sudeste 0 -- -- 94
2019-03-29 07:00:00 5.9 2 Oeste 4 Oeste 0 -- -- 94
2019-03-29 06:00:00 6.1 6 Oeste 9 Noroeste 0 -- -- 92
2019-03-29 05:00:00 6.7 0 Calma 9 Oeste 0 -- -- 87
2019-03-29 04:00:00 7.8 5 Noroeste 15 Este 0 -- -- 82
2019-03-29 03:00:00 8.3 13 Este 19 Este 0 -- -- 75
2019-03-29 02:00:00 8.7 9 Sur 26 Este 0 -- -- 77
2019-03-29 01:00:00 8.2 14 Este 25 Este 0 -- -- 80
2019-03-29 00:00:00 7.4 2 Nordeste 17 Sudeste 0 -- -- 93
2019-03-28 23:00:00 8.5 11 Este 31 Este 0 -- -- 84
2019-03-28 22:00:00 8.1 24 Este 31 Este 0 -- -- 90
2019-03-28 21:00:00 8.5 16 Este 21 Sudeste 0 -- -- 89
2019-03-28 20:00:00 9.2 12 Este 25 Este 0 -- -- 86
2019-03-28 19:00:00 10.6 14 Este 24 Este 0 -- -- 80
2019-03-28 18:00:00 11.9 15 Este 31 Nordeste 0 -- -- 76
2019-03-28 17:00:00 12.5 19 Este 36 Este 0 -- -- 74
2019-03-28 16:00:00 13.1 22 Nordeste 35 Nordeste 0 -- -- 73
2019-03-28 15:00:00 13 22 Nordeste 35 Nordeste 0 -- -- 73
2019-03-28 14:00:00 13.7 21 Nordeste 34 Nordeste 0 -- -- 71
2019-03-28 13:00:00 14.4 18 Este 39 Este 0 -- -- 57
2019-03-28 12:00:00 14 23 Este 41 Este 0 -- -- 47
2019-03-28 11:00:00 12.4 24 Este 41 Este 0 -- -- 53
2019-03-28 10:00:00 11.1 24 Este 38 Este 0 -- -- 56
2019-03-28 09:00:00 10.3 16 Este 29 Este 0 -- -- 57
2019-03-28 08:00:00 7.1 18 Sudeste 28 Este 0 -- -- 58
2019-03-28 07:00:00 6.8 20 Este 27 Este 0 -- -- 59
2019-03-28 06:00:00 6.8 14 Este 27 Este 0 -- -- 58
2019-03-28 05:00:00 6.5 19 Este 37 Este 0 -- -- 69
2019-03-28 04:00:00 6.5 28 Este 37 Este 0 -- -- 75
2019-03-28 03:00:00 6.9 19 Este 27 Este 0 -- -- 70
2019-03-28 02:00:00 7.1 19 Este 24 Este 0 -- -- 74
2019-03-28 01:00:00 7.6 18 Este 34 Este 0 -- -- 75
2019-03-28 00:00:00 7.8 26 Este 39 Este 0 -- -- 80
2019-03-27 23:00:00 8.2 18 Este 31 Este 0 -- -- 76
2019-03-27 22:00:00 8.5 22 Este 36 Este 0 -- -- 75
2019-03-27 21:00:00 9.6 26 Este 54 Este 0 -- -- 68
2019-03-27 20:00:00 9.8 27 Este 40 Este 0 -- -- 65
2019-03-27 19:00:00 10.9 19 Este 32 Este 0 -- -- 63
2019-03-27 18:00:00 11.6 22 Este 37 Nordeste 0 -- -- 64
2019-03-27 17:00:00 12.4 26 Este 38 Este 0 -- -- 64
2019-03-27 16:00:00 13.1 27 Este 40 Nordeste 0 -- -- 62
2019-03-27 15:00:00 13.3 23 Este 40 Este 0 -- -- 66
2019-03-27 14:00:00 13.4 24 Este 38 Nordeste 0 -- -- 66
2019-03-27 13:00:00 14.8 18 Este 47 Sudeste 0 -- -- 50
2019-03-27 12:00:00 14.4 26 Este 53 Este 0 -- -- 38
2019-03-27 11:00:00 12.8 32 Este 51 Este 0 -- -- 44
2019-03-27 10:00:00 11.9 26 Este 48 Este 0 -- -- 40
2019-03-27 09:00:00 10.7 34 Este 53 Este 0 -- -- 40
2019-03-27 08:00:00 9.3 41 Sudeste 59 Sudeste 0 -- -- 45
2019-03-27 07:00:00 7.8 33 Este 49 Sudeste 0 -- -- 58
2019-03-27 06:00:00 7.6 25 Sudeste 55 Este 0 -- -- 59
2019-03-27 05:00:00 7.1 21 Sudeste 42 Sudeste 0 -- -- 58
2019-03-27 04:00:00 7.2 17 Este 53 Sudeste 0 -- -- 59
2019-03-27 03:00:00 7.7 33 Este 59 Sudeste 0 -- -- 55
2019-03-27 02:00:00 7.8 44 Este 71 Este 0 -- -- 56
2019-03-27 01:00:00 7.9 32 Este 47 Este 0 -- -- 57
2019-03-27 00:00:00 7.7 25 Este 44 Sudeste 0 -- -- 55
2019-03-26 23:00:00 8.7 27 Este 50 Este 0 -- -- 47
2019-03-26 22:00:00 8.7 37 Este 69 Sudeste 0 -- -- 55
2019-03-26 21:00:00 8.6 39 Este 66 Este 0 -- -- 63
2019-03-26 20:00:00 9.5 43 Este 66 Este 0 -- -- 61
2019-03-26 19:00:00 9.8 39 Este 61 Este 0 -- -- 65
2019-03-26 18:00:00 10.5 35 Este 63 Este 0 -- -- 65
2019-03-26 17:00:00 12.2 41 Este 58 Este 0 -- -- 56
2019-03-26 16:00:00 12.7 23 Este 54 Sudeste 0 -- -- 57
2019-03-26 15:00:00 13.1 19 Nordeste 50 Sudeste 0 -- -- 55
2019-03-26 14:00:00 13.2 28 Este 52 Este 0 -- -- 51
2019-03-26 13:00:00 12.5 22 Este 59 Nordeste 0 -- -- 50
2019-03-26 12:00:00 11.5 38 Este 56 Este 0 -- -- 51
2019-03-26 11:00:00 11 27 Este 65 Este 0 -- -- 57
2019-03-26 10:00:00 9.2 40 Este 59 Este 0 -- -- 64
2019-03-26 09:00:00 8 46 Este 67 Este 0 -- -- 72
2019-03-26 08:00:00 7.2 37 Este 55 Este 0 -- -- 79
2019-03-26 07:00:00 7.1 34 Este 59 Este 0 -- -- 80
2019-03-26 06:00:00 7.3 37 Este 63 Este 0 -- -- 78
2019-03-26 05:00:00 7.6 28 Este 55 Nordeste 0 -- -- 74
2019-03-26 04:00:00 7.8 22 Este 54 Sudeste 0 -- -- 71
2019-03-26 03:00:00 7.3 19 Sudeste 47 Sudeste 0 -- -- 73
2019-03-26 02:00:00 7 22 Este 53 Este 0 -- -- 80
2019-03-26 01:00:00 7.2 38 Este 58 Este 0 -- -- 82
2019-03-26 00:00:00 7.3 31 Este 51 Este 0 -- -- 83
2019-03-25 23:00:00 7.5 29 Este 44 Este 0 -- -- 83
2019-03-25 22:00:00 7.6 27 Este 49 Este 0 -- -- 85
2019-03-25 21:00:00 7.8 29 Este 44 Este 0 -- -- 86
2019-03-25 20:00:00 8.6 24 Este 40 Este 0 -- -- 84
2019-03-25 19:00:00 9.7 21 Este 41 Este 0 -- -- 81
2019-03-25 18:00:00 10.2 23 Nordeste 42 Este 0 -- -- 84
2019-03-25 17:00:00 11.2 19 Nordeste 42 Nordeste 0 -- -- 82
2019-03-25 16:00:00 11.3 31 Nordeste 48 Nordeste 0 -- -- 83
2019-03-25 15:00:00 11.7 27 Nordeste 42 Nordeste 0 -- -- 82
2019-03-25 14:00:00 12.4 18 Nordeste 37 Nordeste 0 -- -- 78
2019-03-25 13:00:00 12 19 Nordeste 37 Nordeste 0 -- -- 78
2019-03-25 12:00:00 12.1 25 Este 41 Este 0 -- -- 70
2019-03-25 11:00:00 10.8 24 Este 45 Este 0 -- -- 78
2019-03-25 10:00:00 9.5 18 Este 36 Nordeste 0 -- -- 86
2019-03-25 09:00:00 8.8 14 Nordeste 34 Este 0 -- -- 88
2019-03-25 08:00:00 8.5 18 Nordeste 32 Nordeste 0 -- -- 89
2019-03-25 07:00:00 8.5 15 Nordeste 29 Nordeste 0 -- -- 89
2019-03-25 06:00:00 8.6 15 Este 33 Este 0 -- -- 89
2019-03-25 05:00:00 8.3 15 Nordeste 29 Nordeste 0 -- -- 94
2019-03-25 04:00:00 8.6 14 Nordeste 29 Este 0 -- -- 93
2019-03-25 03:00:00 8.8 17 Nordeste 36 Este 0 -- -- 89
2019-03-25 02:00:00 8.2 18 Este 32 Este 0 -- -- 92
2019-03-25 01:00:00 8.2 13 Nordeste 32 Este 0 -- -- 92
2019-03-25 00:00:00 8.2 15 Este 30 Este 0 -- -- 94
2019-03-24 23:00:00 8.3 11 Este 21 Este 0 -- -- 93
2019-03-24 22:00:00 8.1 4 Oeste 13 Este 0 -- -- 100
2019-03-24 21:00:00 9.2 5 Nordeste 22 Este 0 -- -- 93
2019-03-24 20:00:00 10.3 5 Nordeste 27 Nordeste 0 -- -- 75
2019-03-24 19:00:00 10.6 14 Nordeste 41 Este 0 -- -- 84
2019-03-24 18:00:00 12.5 16 Nordeste 37 Nordeste 0 -- -- 74
2019-03-24 17:00:00 14.6 12 Nordeste 36 Este 0 -- -- 58
2019-03-24 16:00:00 14.5 18 Este 39 Este 0 -- -- 65
2019-03-24 15:00:00 15.6 16 Nordeste 27 Nordeste 0 -- -- 66
2019-03-24 14:00:00 15.6 12 Nordeste 28 Este 0 -- -- 66
2019-03-24 13:00:00 13.3 8 Noroeste 15 Noroeste 0 -- -- 87
2019-03-24 12:00:00 12 8 Oeste 13 Noroeste 0 -- -- 90
2019-03-24 11:00:00 9.9 3 Oeste 10 Sur 0 -- -- 99
2019-03-24 10:00:00 8.9 3 Norte 6 Noroeste 0 -- -- 98
2019-03-24 09:00:00 8.1 3 Sur 5 Noroeste 0 -- -- 100
2019-03-24 08:00:00 7 0 Calma 8 Noroeste 0 -- -- 100
2019-03-24 07:00:00 7.6 3 Noroeste 5 Noroeste 0 -- -- 99
2019-03-24 06:00:00 7.8 0 Calma 6 Noroeste 0 -- -- 99
2019-03-24 05:00:00 8 0 Calma 6 Noroeste 0 -- -- 97
2019-03-24 04:00:00 7.5 0 Calma 8 Sudoeste 0 -- -- 100
2019-03-24 03:00:00 7.4 7 Sudoeste 10 Sudoeste 0 -- -- 100
2019-03-24 02:00:00 7.9 2 Este 5 Sudeste 0 -- -- 99
2019-03-24 01:00:00 8.6 0 Calma 6 Noroeste 0 -- -- 97
2019-03-24 00:00:00 9 3 Sudeste 7 Sudeste 0 -- -- 88
2019-03-23 23:00:00 9.9 4 Sudeste 6 Noroeste 0 -- -- 91
2019-03-23 22:00:00 12.3 3 Noroeste 13 Este 0 -- -- 74
2019-03-23 21:00:00 12.9 9 Este 15 Este 0 -- -- 59
2019-03-23 20:00:00 13.3 4 Sudeste 6 Sudeste 0 -- -- 78
2019-03-23 19:00:00 15.1 4 Noroeste 21 Nordeste 0 -- -- 73
2019-03-23 18:00:00 16.6 11 Nordeste 27 Este 0 -- -- 51
2019-03-23 17:00:00 16.8 5 Noroeste 12 Noroeste 0 -- -- 72
2019-03-23 16:00:00 17.3 8 Noroeste 12 Oeste 0 -- -- 66
2019-03-23 15:00:00 17.1 6 Noroeste 14 Noroeste 0 -- -- 69
2019-03-23 14:00:00 17 7 Noroeste 13 Noroeste 0 -- -- 69
2019-03-23 13:00:00 16.9 5 Noroeste 9 Oeste 0 -- -- 56
2019-03-23 12:00:00 16.3 3 Sudoeste 11 Sur 0 -- -- 58
2019-03-23 11:00:00 14.8 0 Calma 12 Sur 0 -- -- 61
2019-03-23 10:00:00 12.6 3 Sudeste 7 Sur 0 -- -- 71
2019-03-23 09:00:00 9.9 3 Noroeste 11 Sudoeste 0 -- -- 66
2019-03-23 08:00:00 8.5 3 Sur 9 Este 0 -- -- 71
2019-03-23 07:00:00 7.7 3 Oeste 9 Sudoeste 0 -- -- 74
2019-03-23 06:00:00 8.1 0 Calma 9 Sudoeste 0 -- -- 73
2019-03-23 05:00:00 8.3 0 Calma 6 Este 0 -- -- 72
2019-03-23 04:00:00 8.6 2 Nordeste 11 Sudoeste 0 -- -- 71
2019-03-23 03:00:00 9.4 5 Sudoeste 11 Sudeste 0 -- -- 67
2019-03-23 02:00:00 9.6 3 Este 11 Nordeste 0 -- -- 65
2019-03-23 01:00:00 10.3 4 Este 9 Sur 0 -- -- 59
2019-03-23 00:00:00 10.3 8 Este 14 Este 0 -- -- 57
2019-03-22 23:00:00 10.5 8 Este 15 Este 0 -- -- 56
2019-03-22 22:00:00 9.8 9 Este 13 Este 0 -- -- 64
2019-03-22 21:00:00 10.2 3 Este 8 Este 0 -- -- 62
2019-03-22 20:00:00 10.6 4 Este 17 Este 0 -- -- 61
2019-03-22 19:00:00 11.8 5 Este 18 Noroeste 0 -- -- 61
2019-03-22 18:00:00 13 12 Noroeste 23 Noroeste 0 -- -- 58
2019-03-22 17:00:00 13.9 15 Noroeste 25 Noroeste 0 -- -- 60
2019-03-22 16:00:00 14.9 16 Noroeste 22 Noroeste 0 -- -- 56
2019-03-22 15:00:00 16 14 Noroeste 21 Noroeste 0 -- -- 58
2019-03-22 14:00:00 15.5 15 Noroeste 22 Noroeste 0 -- -- 57
2019-03-22 13:00:00 15.9 11 Noroeste 17 Noroeste 0 -- -- 51
2019-03-22 12:00:00 17 7 Sur 18 Sur 0 -- -- 52
2019-03-22 11:00:00 13.9 7 Sudeste 15 Sudeste 0 -- -- 57
2019-03-22 10:00:00 12.8 5 Sudoeste 23 Sur 0 -- -- 59
2019-03-22 09:00:00 11 9 Sur 22 Sudoeste 0 -- -- 61
2019-03-22 08:00:00 8.6 6 Sur 19 Sur 0 -- -- 65
2019-03-22 07:00:00 7.8 6 Este 9 Este 0 -- -- 73
2019-03-22 06:00:00 7.5 6 Sudeste 9 Este 0 -- -- 79
2019-03-22 05:00:00 6.4 3 Sur 5 Sudoeste 0 -- -- 89
2019-03-22 04:00:00 6.8 4 Sudeste 6 Sur 0 -- -- 86
2019-03-22 03:00:00 6.6 0 Calma 5 Sudoeste 0 -- -- 88
2019-03-22 02:00:00 6.7 4 Sur 7 Sur 0 -- -- 87
2019-03-22 01:00:00 7.2 3 Sudeste 6 Este 0 -- -- 85
2019-03-22 00:00:00 7.4 2 Sudoeste 12 Sudeste 0 -- -- 84
2019-03-21 23:00:00 7.9 5 Este 23 Este 0 -- -- 81
2019-03-21 22:00:00 8 12 Este 19 Este 0 -- -- 81
2019-03-21 21:00:00 8 6 Sudeste 19 Este 0 -- -- 82
2019-03-21 20:00:00 8.7 6 Este 22 Nordeste 0 -- -- 81
2019-03-21 19:00:00 9.7 15 Este 28 Este 0 -- -- 77
2019-03-21 18:00:00 11.4 12 Norte 27 Nordeste 0 -- -- 72
2019-03-21 17:00:00 12.1 15 Nordeste 31 Nordeste 0 -- -- 74
2019-03-21 16:00:00 11.8 21 Nordeste 31 Nordeste 0 -- -- 75
2019-03-21 15:00:00 12.4 18 Nordeste 30 Nordeste 0 -- -- 73
2019-03-21 14:00:00 12.4 16 Nordeste 32 Este 0 -- -- 71
2019-03-21 13:00:00 12.5 23 Sudeste 45 Este 0 -- -- 59
2019-03-21 12:00:00 11.8 27 Este 43 Sudeste 0 -- -- 56
2019-03-21 11:00:00 10.8 23 Este 42 Sudeste 0 -- -- 56
2019-03-21 10:00:00 9.2 28 Sudeste 42 Este 0 -- -- 59
2019-03-21 09:00:00 7.6 24 Este 34 Este 0 -- -- 62
2019-03-21 08:00:00 5.3 18 Sudeste 28 Este 0 -- -- 73
2019-03-21 07:00:00 5.5 23 Este 40 Este 0 -- -- 74
2019-03-21 06:00:00 5.8 25 Este 37 Este 0 -- -- 71
2019-03-21 05:00:00 5.9 19 Este 30 Este 0 -- -- 71
2019-03-21 04:00:00 5.8 13 Este 23 Este 0 -- -- 73
2019-03-21 03:00:00 6.3 13 Este 24 Este 0 -- -- 68
2019-03-21 02:00:00 6.6 18 Este 35 Este 0 -- -- 72
2019-03-21 01:00:00 6.5 16 Este 27 Este 0 -- -- 81
2019-03-21 00:00:00 6.6 17 Este 34 Este 0 -- -- 85
2019-03-20 23:00:00 7.2 23 Este 36 Este 0 -- -- 85
2019-03-20 22:00:00 7.2 18 Este 32 Este 0 -- -- 85
2019-03-20 21:00:00 7.5 21 Este 38 Este 0 -- -- 85
2019-03-20 20:00:00 8 24 Este 34 Este 0 -- -- 84
2019-03-20 19:00:00 8.8 17 Este 43 Este 0 -- -- 82
2019-03-20 18:00:00 9.8 24 Nordeste 38 Nordeste 0 -- -- 82
2019-03-20 17:00:00 10.6 20 Nordeste 35 Nordeste 0 -- -- 80
2019-03-20 16:00:00 11.2 19 Nordeste 39 Nordeste 0 -- -- 77
2019-03-20 15:00:00 11.6 20 Nordeste 31 Nordeste 0 -- -- 77
2019-03-20 14:00:00 12.7 17 Este 41 Sudeste 0 -- -- 72
2019-03-20 13:00:00 11.7 15 Nordeste 39 Nordeste 0 -- -- 74
2019-03-20 12:00:00 11 17 Este 38 Sudeste 0 -- -- 74
2019-03-20 11:00:00 10.4 15 Este 37 Sudeste 0 -- -- 75
2019-03-20 10:00:00 8.9 16 Este 27 Sudeste 0 -- -- 80
2019-03-20 09:00:00 7.8 10 Este 26 Este 0 -- -- 87
2019-03-20 08:00:00 7.4 5 Norte 30 Sudeste 0 -- -- 88
2019-03-20 07:00:00 7.4 17 Este 31 Sudeste 0 -- -- 87
2019-03-20 06:00:00 7.3 9 Este 17 Este 0 -- -- 88
2019-03-20 05:00:00 7.6 10 Este 23 Este 0 -- -- 87
2019-03-20 04:00:00 7.6 12 Este 21 Este 0 -- -- 88
2019-03-20 03:00:00 7.2 8 Este 20 Nordeste 0 -- -- 88
2019-03-20 02:00:00 7.4 13 Este 26 Este 0 -- -- 89
2019-03-20 01:00:00 7.4 13 Este 20 Este 0 -- -- 91
2019-03-20 00:00:00 7.5 10 Este 21 Este 0 -- -- 90
2019-03-19 23:00:00 7 15 Este 23 Este 0 -- -- 93
2019-03-19 22:00:00 7.2 16 Este 28 Este 0 -- -- 95
2019-03-19 21:00:00 7.6 12 Este 22 Nordeste 0 -- -- 92
2019-03-19 20:00:00 7.6 12 Nordeste 19 Norte 0 -- -- 89
2019-03-19 19:00:00 8.1 10 Nordeste 19 Este 0 -- -- 88
2019-03-19 18:00:00 9.3 12 Nordeste 21 Este 0 -- -- 79
2019-03-19 17:00:00 9.2 10 Norte 19 Nordeste 0 -- -- 78
2019-03-19 16:00:00 8.9 13 Norte 21 Norte 0 -- -- 81
2019-03-19 15:00:00 9.6 13 Norte 26 Noroeste 0 -- -- 84
2019-03-19 14:00:00 8.9 17 Noroeste 23 Noroeste 0 -- -- 90
2019-03-19 13:00:00 8.9 10 Norte 19 Norte 0 -- -- 85
2019-03-19 12:00:00 10.1 3 Sudoeste 10 Noroeste 0 -- -- 90
2019-03-19 11:00:00 8 5 Noroeste 13 Noroeste 0 -- -- 96
2019-03-19 10:00:00 8.6 4 Norte 13 Nordeste 0 -- -- 93
2019-03-19 09:00:00 6.5 3 Norte 18 Norte 0 -- -- 97
2019-03-19 08:00:00 6.5 9 Nordeste 12 Este 0 -- -- 90
2019-03-19 07:00:00 6.4 9 Norte 18 Nordeste 0.2 -- -- 91
2019-03-19 06:00:00 5.7 3 Sudeste 5 Oeste 0.4 -- -- 99
2019-03-19 05:00:00 6.4 0 Calma 10 Nordeste 0 -- -- 93
2019-03-19 04:00:00 6.4 0 Calma 5 Nordeste 0 -- -- 94
2019-03-19 03:00:00 6.5 2 Nordeste 9 Nordeste 0 -- -- 91
2019-03-19 02:00:00 6.5 4 Nordeste 6 Este 0 -- -- 90
2019-03-19 01:00:00 6.1 0 Calma 6 Este 0 -- -- 91
2019-03-19 00:00:00 6.5 2 Sur 5 Este 0 -- -- 89